Time;durP1;ratioP1;P1;durP2;ratioP2;P2;SDS_P1;SDS_P2;PMS_P1;PMS_P2;Temp;Humidity;BMP_temperature;BMP_pressure;BME280_temperature;BME280_humidity;BME280_pressure;Samples;Min_cycle;Max_cycle;Signal;HPM_P1;HPM_P2
2022/07/23 00:00:53;;;;;;;;;;;614.50;1561.60;;;;;;5113291;28;19927;-57
2022/07/23 00:03:19;;;;;;;;;;;614.50;1561.60;;;;;;5113170;28;19908;-58
2022/07/23 00:05:45;;;;;;;;;;;614.40;1561.60;;;;;;5113332;28;19908;-57
2022/07/23 00:08:10;;;;;;;;;;;614.40;1561.60;;;;;;5113278;28;19918;-57
2022/07/23 00:10:36;;;;;;;;;;;614.40;1561.60;;;;;;5113337;28;20280;-57
2022/07/23 00:13:02;;;;;;;;;;;614.40;1561.60;;;;;;5113232;28;19997;-57
2022/07/23 00:15:27;;;;;;;;;;;614.40;1561.60;;;;;;5113196;28;19908;-56
2022/07/23 00:17:53;;;;;;;;;;;589.70;1587.20;;;;;;5113154;28;19916;-57
2022/07/23 00:20:18;;;;;;;;;;;589.70;1587.20;;;;;;5112836;28;19908;-58
2022/07/23 00:22:51;;;;;;;;;;;589.70;1561.60;;;;;;5113022;28;19908;-57
2022/07/23 00:25:16;;;;;;;;;;;589.70;1561.60;;;;;;5113130;28;19954;-57
2022/07/23 00:27:42;;;;;;;;;;;589.70;1587.20;;;;;;5112776;28;19911;-57
2022/07/23 00:30:08;;;;;;;;;;;589.70;1587.20;;;;;;5112960;28;20865;-57
2022/07/23 00:32:51;;;;;;;;;;;589.60;1587.20;;;;;;5112888;28;19912;-57
2022/07/23 00:35:18;;;;;;;;;;;589.60;1587.20;;;;;;5112928;28;19995;-57
2022/07/23 00:37:44;;;;;;;;;;;589.50;1587.20;;;;;;5112688;28;19915;-57
2022/07/23 00:40:10;;;;;;;;;;;589.50;1587.20;;;;;;5112265;28;20377;-57
2022/07/23 00:42:36;;;;;;;;;;;589.50;1587.20;;;;;;5112739;28;19919;-56
2022/07/23 00:45:01;;;;;;;;;;;589.50;1587.20;;;;;;5112528;28;19908;-57
2022/07/23 00:47:27;;;;;;;;;;;589.40;1587.20;;;;;;5112661;28;19907;-56
2022/07/23 00:49:52;;;;;;;;;;;589.40;1587.20;;;;;;5094429;28;19960;-57
2022/07/23 00:52:18;;;;;;;;;;;589.40;1587.20;;;;;;5112524;28;19908;-57
2022/07/23 00:54:44;;;;;;;;;;;589.40;1587.20;;;;;;5112515;28;20268;-57
2022/07/23 00:57:09;;;;;;;;;;;589.40;1587.20;;;;;;5112003;28;19908;-58
2022/07/23 00:59:35;;;;;;;;;;;589.40;1612.80;;;;;;5112096;28;19947;-57
2022/07/23 01:02:00;;;;;;;;;;;589.30;1612.80;;;;;;5112146;28;20265;-57
2022/07/23 01:04:26;;;;;;;;;;;589.20;1612.80;;;;;;5112423;28;19907;-57
2022/07/23 01:06:52;;;;;;;;;;;589.30;1612.80;;;;;;5112138;28;20300;-57
2022/07/23 01:09:18;;;;;;;;;;;589.20;1612.80;;;;;;5112063;28;19907;-58
2022/07/23 01:11:43;;;;;;;;;;;588.80;1638.40;;;;;;5111788;28;19965;-56
2022/07/23 01:14:09;;;;;;;;;;;588.90;1638.40;;;;;;5111832;28;19912;-57
2022/07/23 01:16:34;;;;;;;;;;;589.00;1638.40;;;;;;5111992;28;19908;-58
2022/07/23 01:19:00;;;;;;;;;;;589.00;1612.80;;;;;;5111770;28;19927;-58
2022/07/23 01:21:25;;;;;;;;;;;589.00;1612.80;;;;;;5112061;28;19908;-57
2022/07/23 01:23:51;;;;;;;;;;;589.00;1612.80;;;;;;5111742;28;19907;-58
2022/07/23 01:26:17;;;;;;;;;;;589.00;1612.80;;;;;;5111975;28;20369;-57
2022/07/23 01:28:42;;;;;;;;;;;589.00;1612.80;;;;;;5111422;28;20276;-58
2022/07/23 01:31:08;;;;;;;;;;;589.00;1612.80;;;;;;5111687;28;19907;-58
2022/07/23 01:33:34;;;;;;;;;;;589.00;1612.80;;;;;;5111905;28;19915;-58
2022/07/23 01:35:59;;;;;;;;;;;589.00;1612.80;;;;;;5111689;28;19907;-58
2022/07/23 01:38:25;;;;;;;;;;;589.00;1587.20;;;;;;5111633;28;20411;-57
2022/07/23 01:40:50;;;;;;;;;;;589.00;1612.80;;;;;;5111238;28;19915;-58
2022/07/23 01:43:16;;;;;;;;;;;589.00;1612.80;;;;;;5111550;28;19951;-57
2022/07/23 01:45:43;;;;;;;;;;;589.00;1612.80;;;;;;5111408;28;19908;-57
2022/07/23 01:48:09;;;;;;;;;;;589.00;1587.20;;;;;;5111306;28;20357;-58
2022/07/23 01:50:35;;;;;;;;;;;589.00;1587.20;;;;;;5111462;28;19908;-57
2022/07/23 01:53:00;;;;;;;;;;;589.00;1612.80;;;;;;5111385;28;19911;-58
2022/07/23 01:55:26;;;;;;;;;;;589.00;1612.80;;;;;;5111503;28;19908;-58
2022/07/23 01:57:51;;;;;;;;;;;589.00;1612.80;;;;;;5111027;28;20380;-56
2022/07/23 02:00:17;;;;;;;;;;;588.90;1638.40;;;;;;5111121;28;20281;-60
2022/07/23 02:02:42;;;;;;;;;;;588.80;1664.00;;;;;;5111032;28;20365;-59
2022/07/23 02:05:08;;;;;;;;;;;564.10;1689.60;;;;;;5111190;28;20002;-60
2022/07/23 02:07:34;;;;;;;;;;;564.00;1715.20;;;;;;5111407;28;19927;-58
2022/07/23 02:09:59;;;;;;;;;;;564.00;1715.20;;;;;;5111145;28;19988;-59
2022/07/23 02:12:25;;;;;;;;;;;564.00;1715.20;;;;;;5110713;28;19912;-58
2022/07/23 02:14:50;;;;;;;;;;;564.00;1715.20;;;;;;5110721;28;19922;-59
2022/07/23 02:17:16;;;;;;;;;;;564.00;1689.60;;;;;;5110811;28;19961;-60
2022/07/23 02:19:41;;;;;;;;;;;564.00;1689.60;;;;;;5110099;28;19912;-59
2022/07/23 02:22:07;;;;;;;;;;;564.00;1689.60;;;;;;5110977;28;19908;-60
2022/07/23 02:24:32;;;;;;;;;;;564.00;1689.60;;;;;;5110909;28;20368;-59
2022/07/23 02:26:58;;;;;;;;;;;563.90;1689.60;;;;;;5110665;28;19907;-59
2022/07/23 02:29:23;;;;;;;;;;;564.00;1664.00;;;;;;5110672;28;20401;-60
2022/07/23 02:31:49;;;;;;;;;;;564.00;1664.00;;;;;;5110641;28;19909;-59
2022/07/23 02:34:14;;;;;;;;;;;564.10;1689.60;;;;;;5110750;28;19960;-59
2022/07/23 02:36:40;;;;;;;;;;;563.90;1689.60;;;;;;5110837;28;19912;-58
2022/07/23 02:39:06;;;;;;;;;;;563.90;1689.60;;;;;;5110769;28;19916;-58
2022/07/23 02:41:31;;;;;;;;;;;563.70;1715.20;;;;;;5110506;28;19912;-59
2022/07/23 02:43:57;;;;;;;;;;;563.70;1715.20;;;;;;5110658;28;19912;-59
2022/07/23 02:46:22;;;;;;;;;;;563.70;1715.20;;;;;;5110433;28;19919;-58
2022/07/23 02:48:48;;;;;;;;;;;563.70;1715.20;;;;;;5110721;28;19914;-59
2022/07/23 02:51:13;;;;;;;;;;;563.70;1689.60;;;;;;5110586;28;19931;-61
2022/07/23 02:53:39;;;;;;;;;;;563.60;1689.60;;;;;;5110477;28;19907;-60
2022/07/23 02:56:04;;;;;;;;;;;563.70;1715.20;;;;;;5110768;28;19941;-58
2022/07/23 02:58:30;;;;;;;;;;;563.60;1715.20;;;;;;5110350;28;20361;-59
2022/07/23 03:00:56;;;;;;;;;;;563.60;1715.20;;;;;;5110429;28;19920;-60
2022/07/23 03:03:21;;;;;;;;;;;563.60;1715.20;;;;;;5110380;28;20246;-60
2022/07/23 03:05:47;;;;;;;;;;;563.60;1715.20;;;;;;5110577;28;20002;-59
2022/07/23 03:08:13;;;;;;;;;;;563.60;1740.80;;;;;;5110371;28;20315;-60
2022/07/23 03:10:38;;;;;;;;;;;563.50;1740.80;;;;;;5110227;28;19912;-59
2022/07/23 03:13:04;;;;;;;;;;;563.60;1766.40;;;;;;5110671;28;20441;-60
2022/07/23 03:15:29;;;;;;;;;;;563.40;1766.40;;;;;;5110251;28;19907;-60
2022/07/23 03:17:55;;;;;;;;;;;563.40;1740.80;;;;;;5110383;28;19916;-58
2022/07/23 03:20:20;;;;;;;;;;;563.40;1740.80;;;;;;5110123;28;19911;-58
2022/07/23 03:22:46;;;;;;;;;;;563.40;1740.80;;;;;;5110389;28;19999;-59
2022/07/23 03:25:11;;;;;;;;;;;563.40;1740.80;;;;;;5110403;28;19908;-59
2022/07/23 03:27:37;;;;;;;;;;;563.50;1740.80;;;;;;5110400;28;19923;-59
2022/07/23 03:30:03;;;;;;;;;;;563.40;1740.80;;;;;;5110344;28;19908;-59
2022/07/23 03:32:29;;;;;;;;;;;563.50;1740.80;;;;;;5113988;28;19999;-59
2022/07/23 03:34:54;;;;;;;;;;;563.50;1715.20;;;;;;5113992;28;20254;-59
2022/07/23 03:37:20;;;;;;;;;;;563.60;1715.20;;;;;;5113672;28;19912;-59
2022/07/23 03:39:46;;;;;;;;;;;563.60;1715.20;;;;;;5113881;28;19982;-60
2022/07/23 03:42:11;;;;;;;;;;;563.60;1715.20;;;;;;5113509;28;19915;-60
2022/07/23 03:44:38;;;;;;;;;;;563.70;1715.20;;;;;;5113857;28;19919;-62
2022/07/23 03:47:04;;;;;;;;;;;563.80;1689.60;;;;;;5113891;28;19915;-58
2022/07/23 03:49:29;;;;;;;;;;;563.80;1689.60;;;;;;5113684;28;19960;-58
2022/07/23 03:51:55;;;;;;;;;;;563.90;1689.60;;;;;;5113601;28;19908;-59
2022/07/23 03:54:21;;;;;;;;;;;564.00;1689.60;;;;;;5113135;28;19908;-58
2022/07/23 03:56:46;;;;;;;;;;;564.00;1689.60;;;;;;5113636;28;20348;-60
2022/07/23 03:59:12;;;;;;;;;;;564.10;1664.00;;;;;;5113118;28;19916;-59
2022/07/23 04:01:37;;;;;;;;;;;564.10;1664.00;;;;;;5113180;28;19927;-60
2022/07/23 04:04:03;;;;;;;;;;;588.80;1664.00;;;;;;5113463;28;20269;-59
2022/07/23 04:06:28;;;;;;;;;;;588.90;1664.00;;;;;;5113258;28;19907;-59
2022/07/23 04:08:54;;;;;;;;;;;588.80;1689.60;;;;;;5113372;28;20369;-58
2022/07/23 04:11:20;;;;;;;;;;;589.00;1689.60;;;;;;5113113;28;19919;-58
2022/07/23 04:13:45;;;;;;;;;;;589.10;1664.00;;;;;;5113304;28;19911;-60
2022/07/23 04:16:11;;;;;;;;;;;589.20;1664.00;;;;;;5113063;28;19915;-59
2022/07/23 04:18:36;;;;;;;;;;;589.30;1664.00;;;;;;5113060;28;20322;-58
2022/07/23 04:21:02;;;;;;;;;;;589.30;1638.40;;;;;;5113031;28;19908;-58
2022/07/23 04:23:27;;;;;;;;;;;589.50;1638.40;;;;;;5113171;28;19916;-60
2022/07/23 04:25:53;;;;;;;;;;;589.50;1638.40;;;;;;5113033;28;20302;-59
2022/07/23 04:28:19;;;;;;;;;;;589.50;1612.80;;;;;;5113066;28;19999;-59
2022/07/23 04:30:44;;;;;;;;;;;589.70;1638.40;;;;;;5112962;28;20366;-59
2022/07/23 04:33:10;;;;;;;;;;;589.70;1638.40;;;;;;5112583;28;19912;-57
2022/07/23 04:35:36;;;;;;;;;;;589.70;1638.40;;;;;;5112788;28;19908;-58
2022/07/23 04:38:02;;;;;;;;;;;589.70;1638.40;;;;;;5112678;28;19911;-58
2022/07/23 04:40:27;;;;;;;;;;;614.40;1612.80;;;;;;5112636;28;19912;-60
2022/07/23 04:42:53;;;;;;;;;;;614.60;1612.80;;;;;;5111897;28;19918;-57
2022/07/23 04:45:19;;;;;;;;;;;614.70;1612.80;;;;;;5112580;28;19908;-58
2022/07/23 04:47:45;;;;;;;;;;;614.90;1612.80;;;;;;5112702;28;19953;-58
2022/07/23 04:50:11;;;;;;;;;;;615.00;1587.20;;;;;;5112379;28;20369;-58
2022/07/23 04:52:37;;;;;;;;;;;640.00;1587.20;;;;;;5112520;28;19929;-57
2022/07/23 04:55:04;;;;;;;;;;;666.20;1510.40;;;;;;5112498;28;19908;-60
2022/07/23 04:57:29;;;;;;;;;;;768.40;1305.60;;;;;;5112371;28;19915;-60
2022/07/23 04:59:55;;;;;;;;;;;820.10;1177.60;;;;;;5112283;28;19907;-58
2022/07/23 05:02:20;;;;;;;;;;;870.70;1100.80;;;;;;5112111;28;20014;-61
2022/07/23 05:04:46;;;;;;;;;;;896.70;1049.60;;;;;;5112373;28;19908;-61
2022/07/23 05:07:11;;;;;;;;;;;921.80;1049.60;;;;;;5112076;28;19966;-59
2022/07/23 05:09:37;;;;;;;;;;;922.50;998.40;;;;;;5112151;28;19908;-61
2022/07/23 05:12:03;;;;;;;;;;;948.00;947.20;;;;;;5111928;28;19951;-57
2022/07/23 05:14:28;;;;;;;;;;;947.70;972.80;;;;;;5112231;28;19912;-60
2022/07/23 05:16:54;;;;;;;;;;;947.90;947.20;;;;;;5112145;28;20368;-62
2022/07/23 05:19:20;;;;;;;;;;;947.80;947.20;;;;;;5111901;28;20068;-59
2022/07/23 05:21:45;;;;;;;;;;;972.80;972.80;;;;;;5111804;28;19914;-59
2022/07/23 05:24:11;;;;;;;;;;;973.50;947.20;;;;;;5111479;28;19919;-61
2022/07/23 05:26:36;;;;;;;;;;;998.70;947.20;;;;;;5111876;28;19908;-59
2022/07/23 05:29:02;;;;;;;;;;;998.80;947.20;;;;;;5111819;28;19947;-61
2022/07/23 05:31:27;;;;;;;;;;;998.90;921.60;;;;;;5111944;28;19908;-57
2022/07/23 05:33:53;;;;;;;;;;;1024.40;896.00;;;;;;5111538;28;19912;-61
2022/07/23 05:36:18;;;;;;;;;;;1049.70;896.00;;;;;;5111808;28;19916;-61
2022/07/23 05:38:44;;;;;;;;;;;1050.20;896.00;;;;;;5111527;28;19915;-60
2022/07/23 05:41:09;;;;;;;;;;;1075.30;896.00;;;;;;5111297;28;19912;-58
2022/07/23 05:43:35;;;;;;;;;;;1100.90;870.40;;;;;;5111469;28;19912;-61
2022/07/23 05:46:01;;;;;;;;;;;1101.50;844.80;;;;;;5111517;28;19912;-59
2022/07/23 05:48:26;;;;;;;;;;;1101.50;844.80;;;;;;5111612;28;19915;-59
2022/07/23 05:50:52;;;;;;;;;;;1126.50;844.80;;;;;;5111392;28;19939;-56
2022/07/23 05:53:18;;;;;;;;;;;1101.70;819.20;;;;;;5111206;28;20291;-60
2022/07/23 05:55:44;;;;;;;;;;;;;;;;;;5110444;28;19915;-56
2022/07/23 05:58:09;;;;;;;;;;;1101.50;844.80;;;;;;5111005;28;19912;-61
2022/07/23 06:00:35;;;;;;;;;;;1126.90;844.80;;;;;;5111052;28;19927;-59
2022/07/23 06:03:01;;;;;;;;;;;;;;;;;;5111241;28;19911;-57
2022/07/23 06:05:26;;;;;;;;;;;;;;;;;;5111237;28;20365;-57
2022/07/23 06:07:53;;;;;;;;;;;;;;;;;;5110986;28;19915;-60
2022/07/23 06:10:18;;;;;;;;;;;;;;;;;;5110764;28;20352;-57
2022/07/23 06:12:44;;;;;;;;;;;1126.70;844.80;;;;;;5111522;28;19912;-56
2022/07/23 06:15:11;;;;;;;;;;;;;;;;;;5110835;28;19908;-59
2022/07/23 06:17:39;;;;;;;;;;;;;;;;;;5110869;28;20358;-57
2022/07/23 06:20:08;;;;;;;;;;;1178.50;768.00;;;;;;5111105;28;19907;-60
2022/07/23 06:22:34;;;;;;;;;;;1177.70;793.60;;;;;;5111109;28;20001;-57
2022/07/23 06:24:59;;;;;;;;;;;1178.00;768.00;;;;;;5110751;28;20325;-57
2022/07/23 06:27:25;;;;;;;;;;;1178.20;768.00;;;;;;5110883;28;19908;-60
2022/07/23 06:29:51;;;;;;;;;;;1178.10;768.00;;;;;;5110507;28;20380;-60
2022/07/23 06:32:16;;;;;;;;;;;1178.30;768.00;;;;;;5111026;28;19912;-60
2022/07/23 06:34:42;;;;;;;;;;;1203.20;768.00;;;;;;5110744;28;19908;-57
2022/07/23 06:37:07;;;;;;;;;;;1178.30;768.00;;;;;;5110903;28;20006;-57
2022/07/23 06:39:33;;;;;;;;;;;;;;;;;;5110648;28;19915;-57
2022/07/23 06:42:00;;;;;;;;;;;1178.10;768.00;;;;;;5110373;28;20014;-58
2022/07/23 06:44:26;;;;;;;;;;;1203.70;742.40;;;;;;5110921;28;20458;-57
2022/07/23 06:46:51;;;;;;;;;;;1203.40;768.00;;;;;;5110469;28;19986;-58
2022/07/23 06:49:17;;;;;;;;;;;1203.60;716.80;;;;;;5110903;28;19908;-57
2022/07/23 06:51:42;;;;;;;;;;;1229.20;742.40;;;;;;5109821;28;19922;-57
2022/07/23 06:54:08;;;;;;;;;;;1254.90;742.40;;;;;;5110387;28;19915;-58
2022/07/23 06:56:34;;;;;;;;;;;1255.10;716.80;;;;;;5110765;28;19908;-59
2022/07/23 06:58:59;;;;;;;;;;;1229.40;716.80;;;;;;5110339;28;20372;-60
2022/07/23 07:01:25;;;;;;;;;;;1204.10;716.80;;;;;;5110270;28;19920;-58
2022/07/23 07:03:51;;;;;;;;;;;1204.10;716.80;;;;;;5110334;28;20045;-58
2022/07/23 07:06:17;;;;;;;;;;;1228.90;742.40;;;;;;5112605;28;20281;-57
2022/07/23 07:08:43;;;;;;;;;;;1254.90;716.80;;;;;;5114350;28;19908;-57
2022/07/23 07:11:09;;;;;;;;;;;1255.30;691.20;;;;;;5114122;28;19951;-58
2022/07/23 07:13:35;;;;;;;;;;;1254.90;716.80;;;;;;5114243;28;19996;-58
2022/07/23 07:16:00;;;;;;;;;;;1254.80;716.80;;;;;;5114427;28;20371;-57
2022/07/23 07:18:26;;;;;;;;;;;1254.50;742.40;;;;;;5114418;28;20015;-57
2022/07/23 07:20:52;;;;;;;;;;;1254.80;742.40;;;;;;5114248;28;20430;-57
2022/07/23 07:23:17;;;;;;;;;;;1229.00;742.40;;;;;;5114394;28;19911;-57
2022/07/23 07:25:43;;;;;;;;;;;1203.40;742.40;;;;;;5113901;28;19907;-57
2022/07/23 07:28:08;;;;;;;;;;;1204.10;742.40;;;;;;5113839;28;19908;-59
2022/07/23 07:30:34;;;;;;;;;;;1229.50;716.80;;;;;;5114197;28;19961;-61
2022/07/23 07:32:59;;;;;;;;;;;1255.00;716.80;;;;;;5114095;28;20002;-58
2022/07/23 07:35:25;;;;;;;;;;;1254.50;716.80;;;;;;5114083;28;20261;-57
2022/07/23 07:37:51;;;;;;;;;;;1229.40;716.80;;;;;;5113714;28;19963;-57
2022/07/23 07:40:16;;;;;;;;;;;1229.50;716.80;;;;;;5113880;28;19915;-60
2022/07/23 07:42:48;;;;;;;;;;;1280.20;716.80;;;;;;5113743;28;19912;-58
2022/07/23 07:45:15;;;;;;;;;;;1255.30;716.80;;;;;;5113705;28;19915;-60
2022/07/23 07:47:40;;;;;;;;;;;1229.30;716.80;;;;;;5113760;28;19941;-57
2022/07/23 07:50:07;;;;;;;;;;;1254.90;716.80;;;;;;5113813;28;19908;-61
2022/07/23 07:52:33;;;;;;;;;;;1254.80;716.80;;;;;;5113620;28;19908;-60
2022/07/23 07:54:59;;;;;;;;;;;1254.40;742.40;;;;;;5113525;28;19908;-59
2022/07/23 07:57:24;;;;;;;;;;;1254.90;742.40;;;;;;5113514;28;19918;-57
2022/07/23 07:59:50;;;;;;;;;;;1254.40;716.80;;;;;;5113317;28;20414;-61
2022/07/23 08:02:15;;;;;;;;;;;1254.80;716.80;;;;;;5113275;28;19920;-59
2022/07/23 08:04:41;;;;;;;;;;;1254.40;742.40;;;;;;5113370;28;20006;-59
2022/07/23 08:07:06;;;;;;;;;;;1280.50;665.60;;;;;;5113437;28;19908;-55
2022/07/23 08:09:32;;;;;;;;;;;1280.90;665.60;;;;;;5113330;28;19961;-60
2022/07/23 08:11:58;;;;;;;;;;;1280.90;665.60;;;;;;5113345;28;19926;-61
2022/07/23 08:14:23;;;;;;;;;;;1280.40;691.20;;;;;;5112552;28;20277;-60
2022/07/23 08:16:49;;;;;;;;;;;1254.40;716.80;;;;;;5110782;28;20649;-58
2022/07/23 08:19:14;;;;;;;;;;;1255.30;691.20;;;;;;5111187;28;19923;-61
2022/07/23 08:21:40;;;;;;;;;;;1280.90;665.60;;;;;;5111605;28;19912;-59
2022/07/23 08:24:05;;;;;;;;;;;1254.60;691.20;;;;;;5111762;28;20402;-60
2022/07/23 08:26:31;;;;;;;;;;;1229.20;691.20;;;;;;5111542;28;19915;-62
2022/07/23 08:28:56;;;;;;;;;;;1152.70;716.80;;;;;;5111290;28;19908;-57
2022/07/23 08:31:22;;;;;;;;;;;1127.00;768.00;;;;;;5111225;28;19908;-57
2022/07/23 08:33:48;;;;;;;;;;;1075.80;742.40;;;;;;5111656;28;19941;-56
2022/07/23 08:36:13;;;;;;;;;;;1050.30;793.60;;;;;;5111069;28;20258;-57
2022/07/23 08:38:39;;;;;;;;;;;1049.70;793.60;;;;;;5111218;28;19923;-57
2022/07/23 08:41:07;;;;;;;;;;;1024.90;793.60;;;;;;5111159;28;19911;-58
2022/07/23 08:43:34;;;;;;;;;;;;;;;;;;5111144;28;20011;-61
2022/07/23 08:46:00;;;;;;;;;;;1024.50;793.60;;;;;;5111092;28;19954;-60
2022/07/23 08:48:27;;;;;;;;;;;998.80;819.20;;;;;;5111514;28;19962;-60
2022/07/23 08:50:54;;;;;;;;;;;973.70;793.60;;;;;;5111726;28;19908;-57
2022/07/23 08:53:20;;;;;;;;;;;973.50;793.60;;;;;;5112343;28;19908;-60
2022/07/23 08:55:46;;;;;;;;;;;973.70;768.00;;;;;;5112510;28;19930;-57
2022/07/23 08:58:12;;;;;;;;;;;973.60;793.60;;;;;;5112135;28;19918;-59
2022/07/23 09:00:38;;;;;;;;;;;998.40;819.20;;;;;;5112069;28;19920;-58
2022/07/23 09:03:03;;;;;;;;;;;998.70;819.20;;;;;;5112096;28;20234;-57
2022/07/23 09:05:29;;;;;;;;;;;998.40;844.80;;;;;;5112107;28;19908;-56
2022/07/23 09:08:13;;;;;;;;;;;973.70;793.60;;;;;;5112394;28;19916;-57
2022/07/23 09:10:48;;;;;;;;;;;973.70;819.20;;;;;;5112247;28;20405;-58
2022/07/23 09:13:41;;;;;;;;;;;973.70;793.60;;;;;;5111883;28;19912;-60
2022/07/23 09:16:10;;;;;;;;;;;973.20;844.80;;;;;;5108210;28;19908;-60
2022/07/23 09:18:47;;;;;;;;;;;973.50;819.20;;;;;;5111795;28;19916;-57
2022/07/23 09:21:30;;;;;;;;;;;998.40;844.80;;;;;;5111825;28;19930;-57
2022/07/23 09:23:55;;;;;;;;;;;998.40;819.20;;;;;;5111938;28;19912;-57
2022/07/23 09:26:21;;;;;;;;;;;998.70;819.20;;;;;;5111653;28;19912;-58
2022/07/23 09:28:57;;;;;;;;;;;973.60;793.60;;;;;;5111638;28;19907;-59
2022/07/23 09:31:24;;;;;;;;;;;973.20;819.20;;;;;;5111685;28;19912;-59
2022/07/23 09:33:49;;;;;;;;;;;973.20;819.20;;;;;;5111546;28;19951;-59
2022/07/23 09:36:15;;;;;;;;;;;973.60;819.20;;;;;;5111668;28;19950;-59
2022/07/23 09:38:50;;;;;;;;;;;973.40;844.80;;;;;;5111562;28;19938;-59
2022/07/23 09:41:16;;;;;;;;;;;973.20;819.20;;;;;;5111561;28;19912;-60
2022/07/23 09:43:42;;;;;;;;;;;973.70;819.20;;;;;;5111595;28;19922;-57
2022/07/23 09:46:17;;;;;;;;;;;973.20;844.80;;;;;;5111439;28;19908;-60
2022/07/23 09:48:42;;;;;;;;;;;973.30;844.80;;;;;;5111315;28;19908;-62
2022/07/23 09:51:08;;;;;;;;;;;973.60;819.20;;;;;;5111438;28;20380;-60
2022/07/23 09:53:34;;;;;;;;;;;973.30;844.80;;;;;;5111379;28;19915;-61
2022/07/23 09:56:00;;;;;;;;;;;973.10;844.80;;;;;;5111170;28;19955;-58
2022/07/23 09:58:26;;;;;;;;;;;973.30;870.40;;;;;;5110955;28;19926;-60
2022/07/23 10:00:52;;;;;;;;;;;973.00;870.40;;;;;;5110960;28;19920;-60
2022/07/23 10:03:19;;;;;;;;;;;973.40;870.40;;;;;;5111399;28;19908;-58
2022/07/23 10:05:45;;;;;;;;;;;973.40;870.40;;;;;;5111222;28;19961;-61
2022/07/23 10:08:16;;;;;;;;;;;973.40;844.80;;;;;;5111244;28;19911;-60
2022/07/23 10:10:42;;;;;;;;;;;973.70;870.40;;;;;;5108736;28;19943;-61
2022/07/23 10:15:47;;;;;;;;;;;973.60;870.40;;;;;;5107919;28;20032;-58
2022/07/23 10:18:13;;;;;;;;;;;973.30;870.40;;;;;;5109236;28;20491;-58
2022/07/23 10:20:40;;;;;;;;;;;973.60;870.40;;;;;;5109318;28;19918;-58
2022/07/23 10:23:14;;;;;;;;;;;973.50;870.40;;;;;;5109483;28;19919;-58
2022/07/23 10:25:44;;;;;;;;;;;973.40;870.40;;;;;;5109258;28;19961;-59
2022/07/23 10:28:31;;;;;;;;;;;973.30;896.00;;;;;;5108804;28;19908;-59
2022/07/23 10:31:06;;;;;;;;;;;973.30;896.00;;;;;;5110737;28;19961;-61
2022/07/23 10:33:40;;;;;;;;;;;973.30;896.00;;;;;;5111249;28;20360;-58
2022/07/23 10:36:19;;;;;;;;;;;973.40;896.00;;;;;;5110896;28;19937;-58
2022/07/23 10:38:50;;;;;;;;;;;973.30;896.00;;;;;;5110810;28;19916;-58
2022/07/23 10:41:29;;;;;;;;;;;973.00;921.60;;;;;;5112877;28;20490;-60
2022/07/23 10:44:11;;;;;;;;;;;973.10;921.60;;;;;;5115392;28;20269;-58
2022/07/23 10:49:29;;;;;;;;;;;973.20;896.00;;;;;;5115029;28;19951;-59
2022/07/23 10:52:13;;;;;;;;;;;973.20;921.60;;;;;;5114933;28;19912;-60
2022/07/23 10:54:49;;;;;;;;;;;973.50;921.60;;;;;;5114895;28;19933;-60
2022/07/23 10:57:15;;;;;;;;;;;973.40;896.00;;;;;;5114964;28;19953;-60
2022/07/23 10:59:59;;;;;;;;;;;973.20;921.60;;;;;;5114571;28;19968;-60
2022/07/23 11:02:26;;;;;;;;;;;973.20;921.60;;;;;;5114637;28;20411;-59
2022/07/23 11:04:52;;;;;;;;;;;973.10;921.60;;;;;;5114511;28;20326;-59
2022/07/23 11:07:18;;;;;;;;;;;973.20;921.60;;;;;;5114653;28;19908;-60
2022/07/23 11:09:44;;;;;;;;;;;;;;;;;;5114281;28;19915;-59
2022/07/23 11:12:10;;;;;;;;;;;;;;;;;;5114141;28;20262;-59
2022/07/23 11:14:36;;;;;;;;;;;;;;;;;;5114512;28;19916;-60
2022/07/23 11:17:02;;;;;;;;;;;;;;;;;;5114347;28;20016;-60
2022/07/23 11:19:28;;;;;;;;;;;;;;;;;;5114197;28;20010;-59
2022/07/23 11:21:56;;;;;;;;;;;;;;;;;;5114329;28;20053;-60
2022/07/23 11:24:22;;;;;;;;;;;;;;;;;;5095775;28;20311;-61
2022/07/23 11:26:48;;;;;;;;;;;;;;;;;;5114319;28;19907;-60
2022/07/23 11:29:14;;;;;;;;;;;;;;;;;;5114006;28;19908;-60
2022/07/23 11:31:40;;;;;;;;;;;;;;;;;;5113843;28;19914;-60
2022/07/23 11:34:05;;;;;;;;;;;;;;;;;;5114159;28;19908;-60
2022/07/23 11:36:31;;;;;;;;;;;;;;;;;;5113992;28;20422;-60
2022/07/23 11:38:57;;;;;;;;;;;;;;;;;;5113802;28;19916;-60
2022/07/23 11:41:23;;;;;;;;;;;;;;;;;;5113667;28;19907;-60
2022/07/23 11:43:49;;;;;;;;;;;;;;;;;;5113973;28;19916;-60
2022/07/23 11:46:15;;;;;;;;;;;;;;;;;;5113808;28;20263;-59
2022/07/23 11:48:41;;;;;;;;;;;;;;;;;;5113502;28;19912;-59
2022/07/23 11:51:07;;;;;;;;;;;;;;;;;;5113782;28;19907;-60
2022/07/23 11:53:33;;;;;;;;;;;;;;;;;;5112425;28;19908;-60
2022/07/23 11:55:59;;;;;;;;;;;;;;;;;;5113550;28;19909;-59
2022/07/23 11:58:25;;;;;;;;;;;;;;;;;;5113477;28;20390;-58
2022/07/23 12:00:51;;;;;;;;;;;;;;;;;;5113106;28;20366;-58
2022/07/23 12:03:16;;;;;;;;;;;;;;;;;;5113392;28;19937;-59
2022/07/23 12:05:42;;;;;;;;;;;;;;;;;;5113516;28;20049;-60
2022/07/23 12:08:10;;;;;;;;;;;998.50;921.60;;;;;;5113500;28;20064;-60
2022/07/23 12:10:41;;;;;;;;;;;998.50;921.60;;;;;;5113225;28;19912;-60
2022/07/23 12:13:10;;;;;;;;;;;998.50;921.60;;;;;;5113457;28;19912;-60
2022/07/23 12:15:39;;;;;;;;;;;998.50;921.60;;;;;;5113212;28;19908;-60
2022/07/23 12:18:05;;;;;;;;;;;998.50;921.60;;;;;;5113334;28;20373;-60
2022/07/23 12:20:32;;;;;;;;;;;973.60;896.00;;;;;;5112976;28;19912;-59
2022/07/23 12:22:59;;;;;;;;;;;;;;;;;;5113198;28;19912;-59
2022/07/23 12:25:25;;;;;;;;;;;;;;;;;;5113339;28;19950;-60
2022/07/23 12:27:50;;;;;;;;;;;;;;;;;;5112944;28;19916;-60
2022/07/23 12:30:16;;;;;;;;;;;;;;;;;;5112936;28;20422;-60
2022/07/23 12:32:42;;;;;;;;;;;;;;;;;;5112660;28;19908;-60
2022/07/23 12:35:08;;;;;;;;;;;;;;;;;;5113072;28;19940;-60
2022/07/23 12:37:34;;;;;;;;;;;;;;;;;;5112980;28;19904;-60
2022/07/23 12:40:00;;;;;;;;;;;;;;;;;;5112881;28;20010;-60
2022/07/23 12:42:26;;;;;;;;;;;;;;;;;;5112808;28;19919;-59
2022/07/23 12:44:52;;;;;;;;;;;;;;;;;;5112629;28;19912;-61
2022/07/23 12:47:18;;;;;;;;;;;998.80;921.60;;;;;;5112842;28;19914;-60
2022/07/23 12:49:43;;;;;;;;;;;998.50;921.60;;;;;;5112717;28;19915;-60
2022/07/23 12:52:16;;;;;;;;;;;998.50;947.20;;;;;;5112411;28;20318;-61
2022/07/23 12:54:41;;;;;;;;;;;998.50;947.20;;;;;;5112361;28;19920;-60
2022/07/23 12:57:07;;;;;;;;;;;998.40;921.60;;;;;;5112679;28;19963;-60
2022/07/23 12:59:32;;;;;;;;;;;973.70;896.00;;;;;;5112475;28;20015;-61
2022/07/23 13:01:58;;;;;;;;;;;973.60;896.00;;;;;;5112189;28;20270;-60
2022/07/23 13:04:24;;;;;;;;;;;973.70;921.60;;;;;;5112009;28;19947;-60
2022/07/23 13:06:50;;;;;;;;;;;973.70;896.00;;;;;;5112145;28;19915;-60
2022/07/23 13:09:19;;;;;;;;;;;973.70;896.00;;;;;;5110796;28;19912;-60
2022/07/23 13:11:46;;;;;;;;;;;973.70;896.00;;;;;;5110904;28;19970;-58
2022/07/23 13:14:12;;;;;;;;;;;973.70;896.00;;;;;;5110415;28;20016;-60
2022/07/23 13:16:38;;;;;;;;;;;973.70;896.00;;;;;;5110496;28;19931;-59
2022/07/23 13:19:04;;;;;;;;;;;;;;;;;;5110247;28;19958;-59
2022/07/23 13:21:30;;;;;;;;;;;;;;;;;;5110256;28;19911;-61
2022/07/23 13:23:56;;;;;;;;;;;;;;;;;;5091705;28;19948;-60
2022/07/23 13:26:22;;;;;;;;;;;;;;;;;;5110211;28;19913;-59
2022/07/23 13:28:47;;;;;;;;;;;;;;;;;;5110335;28;19907;-58
2022/07/23 13:31:13;;;;;;;;;;;;;;;;;;5110105;28;19908;-59
2022/07/23 13:33:39;;;;;;;;;;;;;;;;;;5109972;28;19908;-59
2022/07/23 13:36:05;;;;;;;;;;;;;;;;;;5110017;28;19908;-58
2022/07/23 13:38:31;;;;;;;;;;;;;;;;;;5109899;28;20400;-59
2022/07/23 13:40:57;;;;;;;;;;;;;;;;;;5110217;28;19919;-58
2022/07/23 13:43:23;;;;;;;;;;;;;;;;;;5110001;28;19916;-59
2022/07/23 13:45:49;;;;;;;;;;;;;;;;;;5109803;28;20395;-60
2022/07/23 13:48:15;;;;;;;;;;;;;;;;;;5109681;28;19912;-59
2022/07/23 13:50:41;;;;;;;;;;;;;;;;;;5110147;28;19912;-60
2022/07/23 13:53:07;;;;;;;;;;;;;;;;;;5110092;28;20321;-60
2022/07/23 13:55:33;;;;;;;;;;;;;;;;;;5109847;28;20381;-60
2022/07/23 13:57:59;;;;;;;;;;;;;;;;;;5109808;28;19919;-60
2022/07/23 14:00:25;;;;;;;;;;;;;;;;;;5109625;28;19920;-60
2022/07/23 14:02:51;;;;;;;;;;;;;;;;;;5109087;28;19912;-60
2022/07/23 14:05:17;;;;;;;;;;;;;;;;;;5109915;28;20266;-60
2022/07/23 14:07:44;;;;;;;;;;;;;;;;;;5109519;28;20057;-60
2022/07/23 14:10:10;;;;;;;;;;;;;;;;;;5109402;28;19991;-59
2022/07/23 14:12:36;;;;;;;;;;;;;;;;;;5109624;28;20018;-59
2022/07/23 14:15:02;;;;;;;;;;;;;;;;;;5108196;28;19912;-59